Kundian Weather



Kundian's Current Weather

Temprature 31.25o clear sky

clear sky

Rain: 0 %

Min Temprature31.25o
Max Temprature31.25o
Humidity39
Wind Speed2.21 m/h
Sun Rise05:42:57
Sun Set18:51:07
Current Time: 23-Aug-2019 05:26:37
Lat/Lon: 32.46, 71.49




Kundian's Geo Location



Kundian's Weather Forecast

Time Overall Temp Min Temp Max Temp Humidity Wind Speed Rain
23-Aug-2019 (Fri)
08:00:00 clear sky 31.760 31.757 31.760 40 2.17 m/h 0 %
11:00:00 clear sky 35.850 35.850 35.850 30 2.28 m/h 0 %
14:00:00 clear sky 38.530 38.530 38.531 23 2.61 m/h 0 %
17:00:00 clear sky 39.610 39.610 39.611 19 2.61 m/h 0 %
20:00:00 clear sky 37.950 37.950 37.950 22 3.29 m/h 0 %
23:00:00 clear sky 36.142 36.142 36.142 26 3.29 m/h 0 %
24-Aug-2019 (Sat)
02:00:00 clear sky 34.731 34.731 34.731 27 3.18 m/h 0 %
05:00:00 clear sky 32.155 32.155 32.155 37 1.75 m/h 0 %
08:00:00 clear sky 33.957 33.957 33.957 32 2.96 m/h 0 %
11:00:00 clear sky 37.569 37.569 37.569 27 3.75 m/h 0 %
14:00:00 clear sky 40.169 40.169 40.169 19 2.69 m/h 0 %
17:00:00 clear sky 40.923 40.923 40.923 16 4.08 m/h 0 %
20:00:00 clear sky 38.550 38.550 38.550 18 3.67 m/h 0 %
23:00:00 clear sky 36.769 36.769 36.769 20 2.52 m/h 0 %
25-Aug-2019 (Sun)
02:00:00 clear sky 34.931 34.931 34.931 23 4.02 m/h 0 %
05:00:00 clear sky 32.257 32.257 32.257 34 3.49 m/h 0 %
08:00:00 clear sky 33.914 33.914 33.914 34 2.66 m/h 0 %
11:00:00 clear sky 37.616 37.616 37.616 26 3.98 m/h 0 %
14:00:00 clear sky 40.350 40.350 40.350 19 3.03 m/h 0 %
17:00:00 clear sky 41.450 41.450 41.450 15 3.97 m/h 0 %
20:00:00 clear sky 38.881 38.881 38.881 17 3.33 m/h 0 %
23:00:00 clear sky 37.111 37.111 37.111 19 2.73 m/h 0 %
26-Aug-2019 (Mon)
02:00:00 clear sky 32.965 32.965 32.965 43 4.94 m/h 0 %
05:00:00 clear sky 31.150 31.150 31.150 53 2.51 m/h 0 %
08:00:00 clear sky 32.167 32.167 32.167 49 3.28 m/h 0 %
11:00:00 clear sky 35.672 35.672 35.672 38 3.8 m/h 0 %
14:00:00 clear sky 38.784 38.784 38.784 28 3.11 m/h 0 %
17:00:00 clear sky 40.020 40.020 40.020 23 2.67 m/h 0 %
20:00:00 clear sky 37.872 37.872 37.872 27 3.37 m/h 0 %
23:00:00 clear sky 36.614 36.614 36.614 31 0.43 m/h 0 %
27-Aug-2019 (Tue)
02:00:00 clear sky 33.216 33.216 33.216 44 6.05 m/h 0 %
05:00:00 scattered clouds 32.250 32.250 32.250 49 3.23 m/h 0 %
08:00:00 overcast clouds 33.235 33.235 33.235 44 0.99 m/h 0 %
11:00:00 broken clouds 36.736 36.736 36.736 34 2.52 m/h 0 %
14:00:00 clear sky 39.236 39.236 39.236 27 2.2 m/h 0 %
17:00:00 scattered clouds 40.365 40.365 40.365 22 1.66 m/h 0 %
20:00:00 scattered clouds 39.350 39.350 39.350 24 3.1 m/h 0 %
23:00:00 scattered clouds 36.350 36.350 36.350 35 6.93 m/h 0 %
28-Aug-2019 (Wed)
02:00:00 few clouds 35.457 35.457 35.457 36 4.6 m/h 0 %
05:00:00 clear sky 33.672 33.672 33.672 42 3.06 m/h 0 %

Famous Cities (61)